Time;durP1;ratioP1;P1;durP2;ratioP2;P2;SDS_P1;SDS_P2;PMS_P1;PMS_P2;Temp;Humidity;BMP_temperature;BMP_pressure;BME280_temperature;BME280_humidity;BME280_pressure;Samples;Min_cycle;Max_cycle;Signal;HPM_P1;HPM_P2
2024/02/18 00:00:40;;;;;;;17.50;9.88;;;6.50;99.90;;;;;;5109807;28;20081;-68
2024/02/18 00:03:06;;;;;;;16.73;10.60;;;6.50;99.90;;;;;;5104562;28;20159;-68
2024/02/18 00:05:33;;;;;;;17.08;9.10;;;6.50;99.90;;;;;;5099291;28;20465;-68
2024/02/18 00:08:00;;;;;;;13.52;8.82;;;6.60;99.90;;;;;;5104193;28;20043;-67
2024/02/18 00:10:25;;;;;;;19.42;10.27;;;6.60;99.90;;;;;;5096620;28;20036;-68
2024/02/18 00:12:51;;;;;;;17.90;10.00;;;6.60;99.90;;;;;;5105391;28;20020;-68
2024/02/18 00:15:17;;;;;;;17.63;10.02;;;6.60;99.90;;;;;;5108282;28;20032;-68
2024/02/18 00:17:42;;;;;;;17.20;9.43;;;6.60;99.90;;;;;;5098071;28;20028;-70
2024/02/18 00:20:11;;;;;;;13.48;8.85;;;6.60;99.90;;;;;;5102366;28;20031;-68
2024/02/18 00:22:37;;;;;;;12.45;8.38;;;6.60;99.90;;;;;;5107939;28;20024;-68
2024/02/18 00:25:03;;;;;;;13.98;9.48;;;6.60;99.90;;;;;;5105257;28;20362;-68
2024/02/18 00:27:28;;;;;;;15.45;10.00;;;6.60;99.90;;;;;;5101323;28;20098;-68
2024/02/18 00:29:54;;;;;;;16.88;8.90;;;6.60;99.90;;;;;;5096411;27;20481;-68
2024/02/18 00:32:20;;;;;;;14.45;9.38;;;6.60;99.90;;;;;;5095016;28;20024;-68
2024/02/18 00:34:45;;;;;;;17.45;10.38;;;6.60;99.90;;;;;;5096395;28;20459;-68
2024/02/18 00:37:11;;;;;;;15.15;10.30;;;6.60;99.90;;;;;;5098568;28;20538;-68
2024/02/18 00:39:36;;;;;;;15.10;10.23;;;6.60;99.90;;;;;;5097395;28;20027;-68
2024/02/18 00:42:02;;;;;;;14.18;9.70;;;6.60;99.90;;;;;;5097927;28;20036;-68
2024/02/18 00:44:28;;;;;;;14.52;9.95;;;6.60;99.90;;;;;;5098706;28;20024;-68
2024/02/18 00:46:53;;;;;;;13.90;9.45;;;6.60;99.90;;;;;;5077160;28;20101;-70
2024/02/18 00:49:19;;;;;;;17.95;10.90;;;6.60;99.90;;;;;;5097914;28;20031;-68
2024/02/18 00:51:45;;;;;;;18.77;10.77;;;6.70;99.90;;;;;;5094568;28;20363;-70
2024/02/18 00:54:10;;;;;;;17.88;9.82;;;6.70;99.90;;;;;;5080130;28;20093;-70
2024/02/18 00:56:36;;;;;;;17.33;9.57;;;6.70;99.90;;;;;;5101066;27;20026;-70
2024/02/18 00:59:01;;;;;;;15.63;10.38;;;6.70;99.90;;;;;;5100647;28;20028;-68
2024/02/18 01:01:27;;;;;;;17.23;10.55;;;6.80;99.90;;;;;;5101463;28;20023;-67
2024/02/18 01:03:52;;;;;;;22.95;11.98;;;6.80;99.90;;;;;;5099406;27;20103;-69
2024/02/18 01:06:18;;;;;;;22.63;10.90;;;6.80;99.90;;;;;;5101603;28;20057;-70
2024/02/18 01:08:44;;;;;;;19.58;11.88;;;6.80;99.90;;;;;;5099369;28;20174;-70
2024/02/18 01:11:09;;;;;;;16.38;10.70;;;6.90;99.90;;;;;;5099171;28;20036;-70
2024/02/18 01:13:36;;;;;;;17.88;9.85;;;6.90;99.90;;;;;;5104623;28;20540;-69
2024/02/18 01:16:01;;;;;;;14.45;9.00;;;6.90;99.90;;;;;;5108932;28;20103;-69
2024/02/18 01:18:27;;;;;;;15.05;9.45;;;6.90;99.90;;;;;;5106051;28;20146;-68
2024/02/18 01:20:52;;;;;;;18.13;9.45;;;6.90;99.90;;;;;;5102892;28;20360;-70
2024/02/18 01:23:18;;;;;;;14.35;9.32;;;7.00;99.90;;;;;;5098024;28;20441;-69
2024/02/18 01:25:44;;;;;;;15.13;8.90;;;6.90;99.90;;;;;;5099700;28;20055;-69
2024/02/18 01:28:09;;;;;;;15.05;8.20;;;7.00;99.90;;;;;;5101253;27;20078;-70
2024/02/18 01:30:35;;;;;;;11.80;8.07;;;6.90;99.90;;;;;;5104034;28;20058;-69
2024/02/18 01:33:00;;;;;;;15.00;9.15;;;7.00;99.90;;;;;;5100974;28;20027;-69
2024/02/18 01:35:26;;;;;;;16.05;9.95;;;6.90;99.90;;;;;;5099491;28;20047;-70
2024/02/18 01:37:51;;;;;;;19.42;10.52;;;6.90;99.90;;;;;;5099977;28;20381;-70
2024/02/18 01:40:17;;;;;;;15.60;11.00;;;6.80;99.90;;;;;;5102145;28;20069;-70
2024/02/18 01:42:43;;;;;;;23.30;12.00;;;6.80;99.90;;;;;;5101378;28;20024;-69
2024/02/18 01:45:12;;;;;;;18.77;11.35;;;6.80;99.90;;;;;;5100847;28;20529;-69
2024/02/18 01:47:41;;;;;;;19.83;12.25;;;6.70;99.90;;;;;;5098394;28;20063;-69
2024/02/18 01:50:08;;;;;;;21.77;11.93;;;6.70;99.90;;;;;;5101806;28;20028;-69
2024/02/18 01:52:35;;;;;;;20.67;12.60;;;6.70;99.90;;;;;;5100642;28;20156;-69
2024/02/18 01:55:03;;;;;;;14.75;11.15;;;6.70;99.90;;;;;;5098378;28;20095;-69
2024/02/18 01:57:29;;;;;;;17.60;11.07;;;6.70;99.90;;;;;;5100918;28;20344;-69
2024/02/18 02:00:00;;;;;;;14.80;10.68;;;6.60;99.90;;;;;;5098884;28;20204;-69
2024/02/18 02:02:26;;;;;;;15.45;10.50;;;6.60;99.90;;;;;;5102029;28;20024;-69
2024/02/18 02:04:52;;;;;;;14.27;9.80;;;6.60;99.90;;;;;;5102669;28;20024;-69
2024/02/18 02:07:20;;;;;;;16.25;10.27;;;6.50;99.90;;;;;;5101931;28;20038;-69
2024/02/18 02:09:46;;;;;;;17.20;10.35;;;6.50;99.90;;;;;;5099201;28;20072;-69
2024/02/18 02:12:12;;;;;;;14.85;10.13;;;6.50;99.90;;;;;;5100064;28;20027;-69
2024/02/18 02:14:38;;;;;;;12.98;9.95;;;6.50;99.90;;;;;;5098262;28;20473;-69
2024/02/18 02:17:05;;;;;;;16.67;10.25;;;6.50;99.90;;;;;;5100049;28;20039;-69
2024/02/18 02:19:30;;;;;;;16.33;10.38;;;6.50;99.90;;;;;;5096812;28;20507;-67
2024/02/18 02:21:56;;;;;;;14.90;9.55;;;6.50;99.90;;;;;;5097513;27;20019;-68
2024/02/18 02:24:22;;;;;;;14.38;9.05;;;6.50;99.90;;;;;;5100113;28;20076;-68
2024/02/18 02:26:52;;;;;;;11.70;8.85;;;6.40;99.90;;;;;;5100132;28;20031;-68
2024/02/18 02:29:18;;;;;;;11.95;8.93;;;6.30;99.90;;;;;;5097998;27;20131;-68
2024/02/18 02:31:44;;;;;;;11.93;8.80;;;6.30;99.90;;;;;;5098907;27;20036;-68
2024/02/18 02:34:14;;;;;;;14.98;8.90;;;6.30;99.90;;;;;;5084735;28;20036;-68
2024/02/18 02:36:40;;;;;;;11.82;8.05;;;6.20;99.90;;;;;;5099992;28;20027;-68
2024/02/18 02:39:11;;;;;;;13.60;9.07;;;6.20;99.90;;;;;;5097946;28;20059;-68
2024/02/18 02:41:37;;;;;;;15.40;9.43;;;6.10;99.90;;;;;;5096692;27;20089;-70
2024/02/18 02:44:03;;;;;;;14.90;9.88;;;6.10;99.90;;;;;;5096407;27;20030;-70
2024/02/18 02:46:29;;;;;;;17.45;10.15;;;6.10;99.90;;;;;;5099867;28;20035;-70
2024/02/18 02:48:55;;;;;;;15.00;9.00;;;6.10;99.90;;;;;;5098988;27;20580;-70
2024/02/18 02:51:20;;;;;;;13.80;9.95;;;6.00;99.90;;;;;;5101536;28;20022;-70
2024/02/18 02:53:46;;;;;;;15.27;10.55;;;6.00;99.90;;;;;;5094043;27;20477;-68
2024/02/18 02:56:12;;;;;;;15.13;10.18;;;6.00;99.90;;;;;;5098539;28;20027;-70
2024/02/18 02:58:38;;;;;;;16.35;9.77;;;5.90;99.90;;;;;;5099800;28;20055;-70
2024/02/18 03:01:03;;;;;;;14.80;10.48;;;5.80;99.90;;;;;;5099301;28;20062;-70
2024/02/18 03:03:29;;;;;;;18.58;11.23;;;5.80;99.90;;;;;;5083614;27;20038;-70
2024/02/18 03:05:55;;;;;;;17.67;12.10;;;5.70;99.90;;;;;;5099575;28;20023;-69
2024/02/18 03:08:21;;;;;;;17.83;12.52;;;5.70;99.90;;;;;;5097909;28;20443;-70
2024/02/18 03:10:46;;;;;;;18.10;12.32;;;5.70;99.90;;;;;;5078863;28;20031;-70
2024/02/18 03:13:12;;;;;;;17.60;11.77;;;5.70;99.90;;;;;;5097437;28;20034;-70
2024/02/18 03:15:38;;;;;;;26.75;13.30;;;5.70;99.90;;;;;;5099235;28;20105;-70
2024/02/18 03:18:03;;;;;;;19.70;13.25;;;5.70;99.90;;;;;;5095293;28;20050;-70
2024/02/18 03:20:30;;;;;;;17.83;11.48;;;5.60;99.90;;;;;;5079538;28;20460;-70
2024/02/18 03:22:55;;;;;;;16.17;11.30;;;5.60;99.90;;;;;;5097158;28;20193;-70
2024/02/18 03:25:21;;;;;;;17.58;11.32;;;5.50;99.90;;;;;;5100690;28;20111;-70
2024/02/18 03:27:47;;;;;;;18.58;11.65;;;5.50;99.90;;;;;;5098537;27;20059;-70
2024/02/18 03:30:13;;;;;;;19.30;11.88;;;5.40;99.90;;;;;;5082997;28;20032;-69
2024/02/18 03:32:38;;;;;;;21.95;13.70;;;5.30;99.90;;;;;;5086451;28;20049;-69
2024/02/18 03:35:05;;;;;;;23.38;14.00;;;5.20;99.90;;;;;;5080785;28;20453;-70
2024/02/18 03:37:31;;;;;;;22.05;13.88;;;5.20;99.90;;;;;;5079659;28;20450;-70
2024/02/18 03:39:57;;;;;;;23.52;14.07;;;5.20;99.90;;;;;;5081863;28;20170;-70
2024/02/18 03:42:22;;;;;;;18.40;13.00;;;5.20;99.90;;;;;;5080915;28;20038;-70
2024/02/18 03:44:48;;;;;;;19.35;13.13;;;5.20;99.90;;;;;;5081913;28;20075;-70
2024/02/18 03:47:14;;;;;;;20.88;13.75;;;5.20;99.90;;;;;;5080983;28;20465;-70
2024/02/18 03:49:40;;;;;;;25.13;13.63;;;5.20;99.90;;;;;;5077777;28;20189;-70
2024/02/18 03:52:06;;;;;;;27.60;15.27;;;5.20;99.90;;;;;;5078940;28;20551;-70
2024/02/18 03:54:32;;;;;;;24.40;14.18;;;5.20;99.90;;;;;;5081053;28;20028;-70
2024/02/18 03:56:58;;;;;;;25.40;15.57;;;5.30;99.90;;;;;;5079315;28;20024;-70
2024/02/18 03:59:25;;;;;;;23.00;14.45;;;5.30;99.90;;;;;;5082492;28;20043;-69
2024/02/18 04:01:51;;;;;;;22.60;14.30;;;5.30;99.90;;;;;;5080521;28;20047;-69
2024/02/18 04:04:16;;;;;;;24.00;14.48;;;5.30;99.90;;;;;;5082866;28;20036;-69
2024/02/18 04:06:42;;;;;;;25.38;15.15;;;5.30;99.90;;;;;;5081587;28;20036;-69
2024/02/18 04:09:11;;;;;;;25.45;16.52;;;5.20;99.90;;;;;;5083072;28;20047;-69
2024/02/18 04:11:37;;;;;;;24.95;15.35;;;5.20;99.90;;;;;;5079942;28;20110;-69
2024/02/18 04:14:03;;;;;;;22.65;14.75;;;5.30;99.90;;;;;;5078982;28;20039;-68
2024/02/18 04:16:29;;;;;;;22.42;14.85;;;5.30;99.90;;;;;;5078559;28;20031;-69
2024/02/18 04:18:55;;;;;;;26.90;15.43;;;5.20;99.90;;;;;;5078540;28;20032;-69
2024/02/18 04:21:20;;;;;;;25.52;15.10;;;5.20;99.90;;;;;;5080871;28;20039;-69
2024/02/18 04:23:46;;;;;;;24.10;15.52;;;5.30;99.90;;;;;;5081149;28;20070;-69
2024/02/18 04:26:13;;;;;;;23.63;15.35;;;5.30;99.90;;;;;;5085280;28;20024;-69
2024/02/18 04:28:40;;;;;;;22.63;15.80;;;5.30;99.90;;;;;;5090265;27;20079;-69
2024/02/18 04:31:06;;;;;;;26.20;15.18;;;5.30;99.90;;;;;;5102205;27;20024;-69
2024/02/18 04:33:32;;;;;;;24.10;15.73;;;5.30;99.90;;;;;;5105950;28;20032;-69
2024/02/18 04:35:58;;;;;;;26.20;16.17;;;5.30;99.90;;;;;;5103094;28;20059;-70
2024/02/18 04:38:23;;;;;;;27.77;16.77;;;5.20;99.90;;;;;;5104356;28;20054;-70
2024/02/18 04:40:49;;;;;;;25.38;17.42;;;5.30;99.90;;;;;;5102135;28;20067;-70
2024/02/18 04:43:16;;;;;;;24.42;14.63;;;5.20;99.90;;;;;;5107195;28;20032;-70
2024/02/18 04:45:42;;;;;;;26.92;14.82;;;5.20;99.90;;;;;;5105856;28;20106;-70
2024/02/18 04:48:07;;;;;;;24.10;14.90;;;5.10;99.90;;;;;;5105131;28;20024;-70
2024/02/18 04:50:33;;;;;;;24.88;14.48;;;5.00;99.90;;;;;;5104709;28;20051;-69
2024/02/18 04:52:59;;;;;;;21.08;14.98;;;4.90;99.90;;;;;;5105642;27;21794;-69
2024/02/18 04:55:24;;;;;;;25.00;15.25;;;4.90;99.90;;;;;;5103723;28;20123;-70
2024/02/18 04:57:50;;;;;;;22.30;14.73;;;4.80;99.90;;;;;;5097603;27;20055;-70
2024/02/18 05:00:16;;;;;;;30.35;16.15;;;4.80;99.90;;;;;;5103951;28;20464;-70
2024/02/18 05:02:43;;;;;;;26.33;16.73;;;4.60;99.90;;;;;;5104673;28;20134;-70
2024/02/18 05:05:08;;;;;;;27.08;16.85;;;4.60;99.90;;;;;;5101241;27;20036;-70
2024/02/18 05:07:34;;;;;;;26.40;17.10;;;4.50;99.90;;;;;;5104353;28;20383;-70
2024/02/18 05:10:01;;;;;;;25.40;16.95;;;4.50;99.90;;;;;;5102914;28;20035;-70
2024/02/18 05:12:27;;;;;;;25.75;16.70;;;4.50;99.90;;;;;;5102411;28;20070;-70
2024/02/18 05:14:52;;;;;;;30.60;18.23;;;4.40;99.90;;;;;;5103753;28;20630;-70
2024/02/18 05:17:18;;;;;;;30.88;18.27;;;4.40;99.90;;;;;;5104052;28;20376;-70
2024/02/18 05:19:44;;;;;;;32.20;18.98;;;4.50;99.90;;;;;;5103825;28;20033;-70
2024/02/18 05:22:09;;;;;;;33.03;18.73;;;4.50;99.90;;;;;;5100729;27;20056;-70
2024/02/18 05:24:35;;;;;;;31.60;19.77;;;4.50;99.90;;;;;;5103968;28;20036;-70
2024/02/18 05:27:00;;;;;;;32.50;19.33;;;4.50;99.90;;;;;;5106500;28;20078;-70
2024/02/18 05:29:26;;;;;;;30.77;17.58;;;4.50;99.90;;;;;;5102990;27;20051;-70
2024/02/18 05:31:52;;;;;;;30.02;18.88;;;4.50;99.90;;;;;;5101117;27;20042;-70
2024/02/18 05:34:18;;;;;;;26.70;17.30;;;4.40;99.90;;;;;;5104966;27;20023;-70
2024/02/18 05:36:43;;;;;;;30.23;18.88;;;4.40;99.90;;;;;;5102698;27;20035;-70
2024/02/18 05:39:12;;;;;;;28.33;16.80;;;4.30;99.90;;;;;;5105258;27;20027;-70
2024/02/18 05:41:38;;;;;;;29.98;17.48;;;4.30;99.90;;;;;;5101252;28;20047;-70
2024/02/18 05:44:05;;;;;;;27.10;17.50;;;4.20;99.90;;;;;;5099779;27;20042;-70
2024/02/18 05:46:31;;;;;;;28.55;18.10;;;4.10;99.90;;;;;;5099015;28;20019;-70
2024/02/18 05:48:56;;;;;;;32.78;18.90;;;4.10;99.90;;;;;;5098815;28;20991;-70
2024/02/18 05:51:22;;;;;;;36.70;22.77;;;4.00;99.90;;;;;;5098887;28;20423;-70
2024/02/18 05:53:48;;;;;;;34.58;21.13;;;4.00;99.90;;;;;;5081201;28;20030;-70
2024/02/18 05:56:13;;;;;;;37.38;21.13;;;4.00;99.90;;;;;;5100231;27;20111;-70
2024/02/18 05:58:39;;;;;;;28.60;18.90;;;4.00;99.90;;;;;;5098579;28;20023;-70
2024/02/18 06:01:05;;;;;;;32.67;19.33;;;4.00;99.90;;;;;;5100493;27;20089;-70
2024/02/18 06:03:30;;;;;;;29.17;18.08;;;3.90;99.90;;;;;;5095568;28;20552;-70
2024/02/18 06:05:56;;;;;;;30.15;19.13;;;3.80;99.90;;;;;;5099254;28;20104;-69
2024/02/18 06:08:22;;;;;;;31.85;18.75;;;3.80;99.90;;;;;;5098608;28;20035;-70
2024/02/18 06:10:48;;;;;;;32.35;19.20;;;3.70;99.90;;;;;;5099369;28;20107;-70
2024/02/18 06:13:14;;;;;;;32.63;18.77;;;3.70;99.90;;;;;;5100533;28;20028;-71
2024/02/18 06:15:39;;;;;;;37.20;20.00;;;3.60;99.90;;;;;;5098710;28;20337;-70
2024/02/18 06:18:05;;;;;;;40.72;23.17;;;3.50;99.90;;;;;;5101663;27;20039;-70
2024/02/18 06:20:31;;;;;;;47.45;24.95;;;3.50;99.90;;;;;;5099161;28;20494;-70
2024/02/18 06:22:57;;;;;;;49.22;27.35;;;3.50;99.90;;;;;;5098104;27;20033;-70
2024/02/18 06:25:23;;;;;;;50.30;28.67;;;3.60;99.90;;;;;;5102420;28;20098;-70
2024/02/18 06:27:50;;;;;;;46.20;27.00;;;3.60;99.90;;;;;;5099529;28;20408;-70
2024/02/18 06:30:16;;;;;;;52.00;28.08;;;3.60;99.90;;;;;;5098378;28;20023;-69
2024/02/18 06:32:42;;;;;;;53.13;26.30;;;3.70;99.90;;;;;;5081965;28;20111;-70
2024/02/18 06:35:10;;;;;;;50.35;28.65;;;3.70;99.90;;;;;;5095793;28;20134;-70
2024/02/18 06:37:36;;;;;;;50.70;27.63;;;3.70;99.90;;;;;;5097369;28;20388;-70
2024/02/18 06:40:02;;;;;;;51.03;27.35;;;3.80;99.90;;;;;;5097621;28;20032;-70
2024/02/18 06:42:28;;;;;;;52.70;28.25;;;3.80;99.90;;;;;;5100730;28;20035;-70
2024/02/18 06:44:54;;;;;;;53.33;27.27;;;3.90;99.90;;;;;;5098135;28;20028;-70
2024/02/18 06:47:19;;;;;;;54.42;30.13;;;3.90;99.90;;;;;;5098374;28;20111;-70
2024/02/18 06:49:45;;;;;;;48.88;27.83;;;4.00;99.90;;;;;;5097664;28;20673;-70
2024/02/18 06:52:13;;;;;;;49.80;28.58;;;4.10;99.90;;;;;;5096427;28;20115;-70
2024/02/18 06:54:39;;;;;;;44.50;27.13;;;4.10;99.90;;;;;;5096534;28;20019;-70
2024/02/18 06:57:04;;;;;;;47.17;28.13;;;4.20;99.90;;;;;;5098491;28;20042;-70
2024/02/18 06:59:30;;;;;;;42.72;26.90;;;4.30;99.90;;;;;;5099731;28;20115;-70
2024/02/18 07:01:55;;;;;;;42.42;26.50;;;4.30;99.90;;;;;;5097473;28;20118;-70
2024/02/18 07:04:24;;;;;;;41.05;25.98;;;4.40;99.90;;;;;;5095808;27;20065;-70
2024/02/18 07:06:49;;;;;;;40.92;26.58;;;4.50;99.90;;;;;;5098094;28;20406;-70
2024/02/18 07:09:15;;;;;;;44.45;27.80;;;4.60;99.90;;;;;;5099418;28;20046;-70
2024/02/18 07:11:40;;;;;;;52.85;31.90;;;4.70;99.90;;;;;;5099456;28;20153;-70
2024/02/18 07:14:06;;;;;;;55.78;29.95;;;4.80;99.90;;;;;;5098434;27;20103;-70
2024/02/18 07:16:32;;;;;;;46.17;25.92;;;4.90;99.90;;;;;;5097820;28;20031;-70
2024/02/18 07:18:57;;;;;;;61.72;33.45;;;5.00;99.90;;;;;;5099321;28;20028;-70
2024/02/18 07:21:23;;;;;;;52.25;30.35;;;5.10;99.90;;;;;;5097326;27;20038;-70
2024/02/18 07:23:50;;;;;;;47.55;28.67;;;5.10;99.90;;;;;;5097292;28;20024;-70
2024/02/18 07:26:16;;;;;;;35.97;24.30;;;5.20;99.90;;;;;;5098179;27;20135;-70
2024/02/18 07:28:42;;;;;;;35.63;21.38;;;5.20;99.90;;;;;;5095400;28;20050;-70
2024/02/18 07:31:08;;;;;;;33.20;20.50;;;5.30;99.90;;;;;;5096209;27;20043;-70
2024/02/18 07:33:35;;;;;;;31.20;20.80;;;5.40;99.90;;;;;;5097030;28;20483;-70
2024/02/18 07:36:01;;;;;;;33.17;20.33;;;5.40;99.90;;;;;;5094836;28;20028;-70
2024/02/18 07:38:26;;;;;;;30.27;19.92;;;5.50;99.90;;;;;;5095648;27;20019;-70
2024/02/18 07:40:53;;;;;;;28.77;18.35;;;5.50;99.90;;;;;;5096040;27;20042;-70
2024/02/18 07:43:19;;;;;;;29.05;19.63;;;5.60;99.90;;;;;;5096099;27;20196;-70
2024/02/18 07:45:46;;;;;;;27.83;17.58;;;5.70;99.90;;;;;;5097063;27;20036;-70
2024/02/18 07:48:13;;;;;;;26.65;19.25;;;5.80;99.90;;;;;;5096922;28;20380;-70
2024/02/18 07:50:38;;;;;;;29.10;17.38;;;5.90;99.90;;;;;;5094994;27;20032;-70
2024/02/18 07:53:04;;;;;;;27.23;17.08;;;6.00;99.90;;;;;;5094761;28;20038;-71
2024/02/18 07:55:31;;;;;;;28.90;17.17;;;6.10;99.90;;;;;;5091964;28;20121;-70
2024/02/18 07:57:57;;;;;;;23.25;16.95;;;6.20;99.90;;;;;;5094390;27;20270;-69
2024/02/18 08:00:23;;;;;;;25.50;17.05;;;6.30;99.90;;;;;;5096985;28;20043;-70
2024/02/18 08:02:48;;;;;;;24.27;16.35;;;6.40;99.90;;;;;;5099071;27;20024;-71
2024/02/18 08:05:14;;;;;;;21.48;15.27;;;6.50;99.90;;;;;;5098877;28;20024;-71
2024/02/18 08:07:40;;;;;;;25.42;15.75;;;6.60;99.90;;;;;;5092285;28;20076;-71
2024/02/18 08:10:06;;;;;;;23.17;16.08;;;6.70;99.90;;;;;;5097736;28;20032;-71
2024/02/18 08:12:31;;;;;;;21.27;14.52;;;6.80;99.90;;;;;;5095924;28;20036;-69
2024/02/18 08:14:58;;;;;;;23.05;13.85;;;6.90;99.90;;;;;;5095887;28;20039;-69
2024/02/18 08:17:23;;;;;;;23.95;14.70;;;7.10;99.90;;;;;;5096971;27;20157;-69
2024/02/18 08:19:49;;;;;;;18.83;14.40;;;7.10;99.90;;;;;;5095745;28;20110;-70
2024/02/18 08:22:15;;;;;;;19.33;13.63;;;7.20;99.90;;;;;;5096524;28;20038;-70
2024/02/18 08:24:44;;;;;;;20.70;13.55;;;7.30;99.90;;;;;;5096012;28;20384;-71
2024/02/18 08:27:10;;;;;;;17.77;13.63;;;7.40;99.90;;;;;;5097944;28;20085;-71
2024/02/18 08:29:38;;;;;;;18.67;12.90;;;7.60;99.90;;;;;;5079644;27;20489;-70
2024/02/18 08:32:06;;;;;;;18.50;13.23;;;7.60;99.90;;;;;;5075908;28;20025;-70
2024/02/18 08:34:31;;;;;;;18.15;12.52;;;7.70;99.90;;;;;;5082396;28;20024;-70
2024/02/18 08:36:57;;;;;;;17.48;13.45;;;7.80;99.90;;;;;;5075551;28;20380;-70
2024/02/18 08:39:23;;;;;;;20.25;13.70;;;7.90;99.90;;;;;;5078021;28;20085;-70
2024/02/18 08:41:50;;;;;;;20.38;13.20;;;8.00;99.90;;;;;;5076263;28;20409;-70
2024/02/18 08:44:16;;;;;;;18.80;12.20;;;8.20;99.90;;;;;;5073610;28;20024;-70
2024/02/18 08:46:41;;;;;;;18.90;12.85;;;8.40;99.90;;;;;;5077318;28;20032;-69
2024/02/18 08:49:07;;;;;;;17.17;12.60;;;8.50;99.90;;;;;;5077392;28;20054;-70
2024/02/18 08:51:33;;;;;;;17.98;11.75;;;8.70;99.90;;;;;;5075031;28;20127;-70
2024/02/18 08:53:59;;;;;;;17.13;11.63;;;8.90;99.90;;;;;;5077672;28;20134;-71
2024/02/18 08:56:25;;;;;;;16.88;11.93;;;9.00;99.90;;;;;;5076848;28;20028;-70
2024/02/18 08:58:50;;;;;;;15.95;11.45;;;9.20;99.90;;;;;;5077665;28;20163;-71
2024/02/18 09:01:19;;;;;;;15.85;11.35;;;9.30;99.90;;;;;;5078868;28;20470;-71
2024/02/18 09:03:45;;;;;;;17.27;11.95;;;9.40;99.90;;;;;;5076038;28;20491;-69
2024/02/18 09:06:10;;;;;;;15.60;11.18;;;9.40;99.90;;;;;;5077403;28;20024;-71
2024/02/18 09:08:37;;;;;;;15.57;11.10;;;9.60;99.90;;;;;;5074729;28;20028;-71
2024/02/18 09:11:05;;;;;;;12.93;10.23;;;9.60;99.90;;;;;;5074455;28;20040;-70
2024/02/18 09:13:31;;;;;;;15.77;11.00;;;9.70;99.90;;;;;;5076338;28;20104;-70
2024/02/18 09:15:57;;;;;;;15.30;10.63;;;9.80;99.90;;;;;;5075327;28;20356;-68
2024/02/18 09:18:22;;;;;;;15.23;10.52;;;9.80;99.90;;;;;;5076543;28;20033;-69
2024/02/18 09:20:48;;;;;;;16.42;10.40;;;10.00;99.90;;;;;;5074397;28;20359;-69
2024/02/18 09:23:15;;;;;;;14.63;10.32;;;10.00;99.90;;;;;;5078805;28;20381;-70
2024/02/18 09:25:42;;;;;;;14.10;11.18;;;10.10;99.90;;;;;;5079495;28;20043;-70
2024/02/18 09:28:08;;;;;;;14.68;10.93;;;10.30;99.90;;;;;;5082527;27;20055;-71
2024/02/18 09:30:35;;;;;;;14.43;10.95;;;10.40;99.90;;;;;;5101650;27;20083;-70
2024/02/18 09:33:01;;;;;;;14.73;10.18;;;10.50;99.90;;;;;;5097968;28;20027;-71
2024/02/18 09:35:27;;;;;;;13.55;10.02;;;10.50;99.90;;;;;;5097753;27;20019;-70
2024/02/18 09:37:53;;;;;;;14.88;10.50;;;10.60;99.90;;;;;;5100023;27;20076;-70
2024/02/18 09:40:19;;;;;;;15.00;10.40;;;10.80;99.90;;;;;;5099827;28;20077;-71
2024/02/18 09:42:47;;;;;;;12.43;9.95;;;11.00;99.90;;;;;;5098476;28;20027;-71
2024/02/18 09:45:15;;;;;;;13.30;10.20;;;11.10;99.90;;;;;;5099266;27;20106;-71
2024/02/18 09:47:44;;;;;;;13.32;9.68;;;11.20;99.90;;;;;;5101061;27;20036;-70
2024/02/18 09:50:11;;;;;;;17.00;10.38;;;11.30;99.90;;;;;;5102464;27;20036;-70
2024/02/18 09:52:41;;;;;;;17.50;9.75;;;11.40;99.90;;;;;;5083417;28;20476;-71
2024/02/18 09:55:10;;;;;;;;;;;11.50;99.90;;;;;;5099548;27;20515;-69
2024/02/18 09:57:38;;;;;;;14.93;10.20;;;11.60;99.90;;;;;;5100110;28;20629;-69
2024/02/18 10:00:05;;;;;;;14.20;10.18;;;11.80;99.90;;;;;;5102561;27;20388;-70
2024/02/18 10:02:33;;;;;;;14.20;10.18;;;11.90;99.90;;;;;;5102020;27;20023;-70
2024/02/18 10:04:59;;;;;;;13.07;9.18;;;11.90;99.90;;;;;;5098523;28;20815;-70
2024/02/18 10:07:25;;;;;;;13.13;8.95;;;12.00;99.90;;;;;;5100053;28;20024;-70
2024/02/18 10:09:51;;;;;;;16.48;10.10;;;12.00;99.90;;;;;;5103134;27;20051;-70
2024/02/18 10:12:17;;;;;;;14.15;9.60;;;12.10;99.90;;;;;;5084150;28;20055;-70
2024/02/18 10:14:43;;;;;;;17.33;9.63;;;12.10;99.90;;;;;;5095974;28;20043;-70
2024/02/18 10:17:08;;;;;;;15.63;10.23;;;12.20;99.90;;;;;;5101649;27;20039;-70
2024/02/18 10:19:34;;;;;;;15.57;9.25;;;12.30;99.90;;;;;;5099330;27;20038;-70
2024/02/18 10:22:00;;;;;;;11.55;8.52;;;12.30;99.90;;;;;;5090267;28;20028;-70
2024/02/18 10:24:27;;;;;;;17.42;8.20;;;12.50;99.90;;;;;;5094834;28;20114;-70
2024/02/18 10:26:58;;;;;;;11.50;8.25;;;12.60;99.90;;;;;;5101114;27;20038;-69
2024/02/18 10:29:24;;;;;;;14.45;8.45;;;12.70;99.90;;;;;;5097753;27;20052;-70
2024/02/18 10:31:50;;;;;;;11.82;9.27;;;12.80;99.90;;;;;;5100252;27;20115;-70
2024/02/18 10:34:17;;;;;;;12.98;7.57;;;12.90;99.90;;;;;;5104278;27;20110;-69
2024/02/18 10:36:47;;;;;;;12.95;8.20;;;13.00;99.90;;;;;;5098653;28;20112;-69
2024/02/18 10:39:16;;;;;;;13.00;7.90;;;13.10;99.90;;;;;;5099990;27;20029;-68
2024/02/18 10:41:50;;;;;;;12.02;8.52;;;13.20;99.90;;;;;;5098848;28;20395;-68
2024/02/18 10:44:17;;;;;;;9.32;7.35;;;13.40;99.90;;;;;;5098591;28;20032;-68
2024/02/18 10:46:47;;;;;;;10.68;7.97;;;13.60;99.90;;;;;;5098616;27;20137;-68
2024/02/18 10:49:30;;;;;;;10.40;7.03;;;13.70;99.90;;;;;;5098819;27;20437;-69
2024/02/18 10:52:15;;;;;;;10.40;7.15;;;13.80;99.90;;;;;;5099200;28;20203;-68
2024/02/18 10:55:03;;;;;;;9.93;7.22;;;14.00;99.90;;;;;;5099738;27;20027;-68
2024/02/18 10:57:31;;;;;;;9.43;7.07;;;14.00;99.90;;;;;;5098065;27;20452;-70
2024/02/18 11:00:05;;;;;;;9.73;6.93;;;14.00;99.90;;;;;;5098144;27;20078;-69
2024/02/18 11:02:36;;;;;;;10.00;7.97;;;14.10;99.90;;;;;;5097442;27;20027;-69
2024/02/18 11:05:03;;;;;;;11.02;7.05;;;14.30;99.90;;;;;;5096920;27;20039;-68
2024/02/18 11:07:30;;;;;;;7.78;6.20;;;14.40;99.90;;;;;;5100809;28;20046;-70
2024/02/18 11:09:57;;;;;;;11.18;7.68;;;14.50;99.90;;;;;;5096342;28;21533;-69
2024/02/18 11:12:24;;;;;;;9.05;6.65;;;14.50;99.90;;;;;;5095560;28;20028;-69
2024/02/18 11:14:51;;;;;;;9.82;7.25;;;14.60;99.90;;;;;;5095719;28;20407;-69
2024/02/18 11:17:18;;;;;;;12.65;7.38;;;14.60;99.90;;;;;;5097985;28;20020;-68
2024/02/18 11:19:45;;;;;;;11.38;7.25;;;14.60;99.90;;;;;;5095852;28;20024;-70
2024/02/18 11:22:11;;;;;;;12.65;7.43;;;14.50;99.90;;;;;;5099574;27;20023;-71
2024/02/18 11:24:37;;;;;;;8.55;6.68;;;14.60;99.90;;;;;;5096891;28;20512;-68
2024/02/18 11:27:03;;;;;;;7.80;6.00;;;14.60;99.90;;;;;;5097314;28;20484;-70
2024/02/18 11:29:28;;;;;;;9.65;6.75;;;14.60;99.90;;;;;;5094244;27;20130;-71
2024/02/18 11:31:54;;;;;;;7.15;5.38;;;14.60;99.90;;;;;;5072873;28;20040;-68
2024/02/18 11:34:20;;;;;;;8.00;6.35;;;14.60;99.90;;;;;;5060304;28;20174;-69
2024/02/18 11:36:46;;;;;;;7.65;5.55;;;14.70;99.90;;;;;;5076148;28;20036;-69
2024/02/18 11:39:11;;;;;;;7.25;5.28;;;14.80;99.90;;;;;;5074805;28;20422;-69
2024/02/18 11:41:38;;;;;;;5.63;4.40;;;14.90;99.90;;;;;;5075126;28;20029;-69
2024/02/18 11:44:11;;;;;;;7.05;5.15;;;15.10;99.90;;;;;;5074561;28;20031;-71
2024/02/18 11:46:43;;;;;;;5.68;4.75;;;15.30;99.90;;;;;;5075954;28;20477;-77
2024/02/18 11:49:12;;;;;;;6.25;4.80;;;;;;;;;;5077344;28;20036;-70
2024/02/18 11:51:38;;;;;;;4.82;3.30;;;;;;;;;;5075699;28;20119;-69
2024/02/18 11:54:05;;;;;;;4.60;3.35;;;;;;;;;;5080589;28;20029;-72
2024/02/18 11:56:31;;;;;;;4.05;3.08;;;;;;;;;;5074407;28;20074;-70
2024/02/18 11:58:58;;;;;;;3.97;3.10;;;;;;;;;;5077023;28;20089;-69
2024/02/18 12:01:25;;;;;;;3.55;2.90;;;;;;;;;;5076334;28;20036;-68
2024/02/18 12:03:51;;;;;;;3.17;2.88;;;;;;;;;;5074853;28;20020;-72
2024/02/18 12:06:17;;;;;;;4.97;3.42;;;;;;;;;;5079428;28;20024;-69
2024/02/18 12:08:43;;;;;;;4.30;3.03;;;;;;;;;;5078040;28;20024;-74
2024/02/18 12:11:09;;;;;;;3.17;2.50;;;;;;;;;;5075141;28;20027;-73
2024/02/18 12:13:36;;;;;;;3.50;2.58;;;;;;;;;;5078524;28;20028;-78
2024/02/18 12:16:02;;;;;;;6.47;3.58;;;;;;;;;;5077235;28;20020;-69
2024/02/18 12:18:28;;;;;;;3.35;2.63;;;;;;;;;;5075318;28;20034;-69
2024/02/18 12:20:55;;;;;;;3.17;2.88;;;;;;;;;;5075937;28;20024;-68
2024/02/18 12:23:24;;;;;;;5.25;2.88;;;;;;;;;;5073660;28;20421;-68
2024/02/18 12:25:51;;;;;;;3.72;2.80;;;;;;;;;;5073427;28;20021;-69
2024/02/18 12:28:17;;;;;;;5.45;3.15;;;;;;;;;;5072864;28;20025;-71
2024/02/18 12:30:48;;;;;;;5.18;2.95;;;;;;;;;;5072496;27;20122;-68
2024/02/18 12:33:15;;;;;;;4.60;3.47;;;;;;;;;;5075146;28;20440;-69
2024/02/18 12:35:41;;;;;;;5.18;3.55;;;;;;;;;;5073784;28;20039;-69
2024/02/18 12:38:08;;;;;;;4.22;2.97;;;;;;;;;;5077349;28;20047;-70
2024/02/18 12:40:35;;;;;;;4.70;3.22;;;;;;;;;;5075648;28;20028;-69